Time;durP1;ratioP1;P1;durP2;ratioP2;P2;SDS_P1;SDS_P2;PMS_P1;PMS_P2;Temp;Humidity;BMP_temperature;BMP_pressure;BME280_temperature;BME280_humidity;BME280_pressure;Samples;Min_cycle;Max_cycle;Signal;HPM_P1;HPM_P2
2023/09/14 00:01:48;;;;;;;14.73;7.53;;;;;;;17.00;100.00;100882.81;5057089;28;20081;-67
2023/09/14 00:04:14;;;;;;;9.95;7.32;;;;;;;17.01;100.00;100879.09;5057543;28;20384;-66
2023/09/14 00:06:41;;;;;;;17.67;7.75;;;;;;;17.00;100.00;100880.13;5056193;28;20029;-66
2023/09/14 00:09:07;;;;;;;13.87;8.67;;;;;;;17.06;100.00;100894.63;5054772;28;20028;-66
2023/09/14 00:11:32;;;;;;;9.30;6.28;;;;;;;16.82;100.00;100855.66;5054093;28;20377;-68
2023/09/14 00:13:58;;;;;;;14.05;7.15;;;;;;;17.01;100.00;100890.66;5054170;28;20461;-68
2023/09/14 00:16:23;;;;;;;9.60;5.93;;;;;;;17.02;100.00;100881.56;5052934;28;20350;-67
2023/09/14 00:18:48;;;;;;;11.00;6.05;;;;;;;16.98;100.00;100874.94;5052980;28;20025;-67
2023/09/14 00:21:14;;;;;;;14.13;6.63;;;;;;;16.87;100.00;100864.78;5054313;28;20078;-66
2023/09/14 00:23:39;;;;;;;8.35;5.22;;;;;;;16.93;100.00;100865.81;5054618;28;20028;-67
2023/09/14 00:26:05;;;;;;;8.98;6.65;;;;;;;16.97;100.00;100880.53;5053992;28;20036;-67
2023/09/14 00:28:30;;;;;;;8.10;5.97;;;;;;;16.91;100.00;100874.09;5052755;28;20029;-67
2023/09/14 00:30:56;;;;;;;10.60;6.18;;;;;;;16.54;100.00;100820.75;5053908;28;20047;-69
2023/09/14 00:33:23;;;;;;;7.75;5.93;;;;;;;16.80;100.00;100866.59;5053903;28;20076;-68
2023/09/14 00:35:49;;;;;;;8.27;5.88;;;;;;;16.90;100.00;100874.28;5052928;28;20056;-68
2023/09/14 00:38:14;;;;;;;8.57;5.65;;;;;;;16.83;100.00;100866.19;5054116;28;20060;-67
2023/09/14 00:40:40;;;;;;;7.72;5.85;;;;;;;16.82;100.00;100847.56;5054500;28;20040;-69
2023/09/14 00:43:06;;;;;;;10.27;6.53;;;;;;;16.80;100.00;100839.72;5053836;28;20064;-66
2023/09/14 00:45:32;;;;;;;9.55;6.57;;;;;;;16.98;100.00;100857.97;5053492;28;20024;-68
2023/09/14 00:48:02;;;;;;;12.95;6.97;;;;;;;17.01;100.00;100860.25;5053081;28;20472;-67
2023/09/14 00:50:28;;;;;;;12.80;6.22;;;;;;;17.00;100.00;100845.97;5053603;28;20071;-71
2023/09/14 00:52:55;;;;;;;9.10;6.15;;;;;;;17.11;100.00;100843.75;5053637;28;20461;-68
2023/09/14 00:55:23;;;;;;;13.57;7.65;;;;;;;16.95;100.00;100821.53;5053769;28;20045;-67
2023/09/14 00:57:49;;;;;;;7.10;5.30;;;;;;;17.11;100.00;100849.13;5053156;28;20468;-66
2023/09/14 01:00:16;;;;;;;13.32;6.80;;;;;;;17.06;100.00;100838.09;5053454;28;20029;-67
2023/09/14 01:02:42;;;;;;;9.77;5.97;;;;;;;17.01;100.00;100830.66;5053750;28;20029;-70
2023/09/14 01:05:08;;;;;;;8.57;6.00;;;;;;;16.97;100.00;100832.09;5053372;28;20071;-68
2023/09/14 01:07:34;;;;;;;11.18;5.57;;;;;;;16.96;100.00;100831.25;5053455;28;20376;-68
2023/09/14 01:10:00;;;;;;;8.25;4.93;;;;;;;16.26;100.00;100730.28;5053229;28;20032;-67
2023/09/14 01:12:27;;;;;;;8.73;5.38;;;;;;;16.82;100.00;100820.69;5053115;28;20068;-66
2023/09/14 01:14:55;;;;;;;8.48;5.82;;;;;;;16.92;100.00;100845.31;5053426;28;20040;-69
2023/09/14 01:17:40;;;;;;;6.07;4.75;;;;;;;16.78;100.00;100825.63;5053435;28;20028;-67
2023/09/14 01:20:27;;;;;;;8.57;5.78;;;;;;;16.71;100.00;100819.38;5053034;28;20025;-68
2023/09/14 01:23:10;;;;;;;7.63;5.88;;;;;;;16.73;100.00;100828.06;5053081;28;20112;-68
2023/09/14 01:25:43;;;;;;;7.43;5.07;;;;;;;16.65;100.00;100820.16;5053073;28;20041;-68
2023/09/14 01:28:13;;;;;;;6.95;5.13;;;;;;;16.63;100.00;100803.41;5053323;28;20033;-70
2023/09/14 01:30:41;;;;;;;9.27;5.45;;;;;;;16.62;100.00;100807.13;5052802;28;20103;-69
2023/09/14 01:33:12;;;;;;;7.93;5.18;;;;;;;16.55;100.00;100784.75;5052493;28;20045;-68
2023/09/14 01:35:46;;;;;;;6.78;5.47;;;;;;;16.47;100.00;100772.31;5053065;28;20083;-68
2023/09/14 01:38:12;;;;;;;7.97;5.25;;;;;;;16.56;100.00;100787.25;5052944;28;20086;-67
2023/09/14 01:40:38;;;;;;;7.32;5.50;;;;;;;16.51;100.00;100772.75;5053111;28;20472;-69
2023/09/14 01:43:06;;;;;;;9.43;5.43;;;;;;;16.47;100.00;100784.91;5052484;28;20542;-69
2023/09/14 01:45:33;;;;;;;7.10;5.55;;;;;;;16.21;100.00;100745.34;5052475;28;20392;-70
2023/09/14 01:48:00;;;;;;;9.27;4.45;;;;;;;16.39;100.00;100776.00;5052882;28;20116;-69
2023/09/14 01:50:25;;;;;;;11.45;5.68;;;;;;;16.41;100.00;100784.69;5056970;28;20085;-66
2023/09/14 01:52:52;;;;;;;6.68;5.57;;;;;;;16.27;100.00;100756.13;5064443;28;20029;-66
2023/09/14 01:55:18;;;;;;;7.60;4.97;;;;;;;16.29;100.00;100783.63;5064025;28;20123;-68
2023/09/14 01:57:45;;;;;;;9.75;5.60;;;;;;;16.34;100.00;100778.47;5059499;28;20123;-66
2023/09/14 02:00:11;;;;;;;9.05;5.28;;;;;;;16.30;100.00;100761.09;5055933;28;20036;-68
2023/09/14 02:02:36;;;;;;;8.68;5.38;;;;;;;16.42;100.00;100764.00;5062121;28;20032;-66
2023/09/14 02:05:02;;;;;;;9.52;4.95;;;;;;;16.50;100.00;100771.94;5061877;28;20039;-68
2023/09/14 02:07:27;;;;;;;13.07;5.15;;;;;;;16.45;100.00;100758.25;5059802;28;20025;-66
2023/09/14 02:09:52;;;;;;;10.55;4.95;;;;;;;16.52;100.00;100763.66;5064104;28;20111;-67
2023/09/14 02:12:18;;;;;;;8.10;4.88;;;;;;;16.59;100.00;100768.03;5054637;28;20380;-69
2023/09/14 02:14:43;;;;;;;11.40;4.47;;;;;;;16.52;100.00;100760.97;5052039;28;20060;-68
2023/09/14 02:17:09;;;;;;;7.18;5.22;;;;;;;16.56;100.00;100765.75;5052617;28;20030;-69
2023/09/14 02:19:34;;;;;;;8.90;4.65;;;;;;;16.29;100.00;100729.03;5052566;28;20025;-69
2023/09/14 02:21:59;;;;;;;7.50;4.40;;;;;;;16.43;100.00;100766.50;5052531;28;20029;-69
2023/09/14 02:24:25;;;;;;;11.05;4.82;;;;;;;16.32;100.00;100753.66;5052159;28;20037;-66
2023/09/14 02:26:52;;;;;;;10.88;4.50;;;;;;;16.36;100.00;100775.56;5052421;28;20029;-69
2023/09/14 02:29:18;;;;;;;7.43;4.88;;;;;;;16.26;100.00;100775.94;5055996;28;20032;-67
2023/09/14 02:31:44;;;;;;;7.15;5.22;;;;;;;16.25;100.00;100773.47;5052679;28;20600;-68
2023/09/14 02:34:09;;;;;;;7.45;5.18;;;;;;;16.07;100.00;100745.25;5052312;28;20055;-69
2023/09/14 02:36:35;;;;;;;9.15;5.32;;;;;;;16.09;100.00;100747.75;5051829;28;20099;-67
2023/09/14 02:39:00;;;;;;;7.93;5.25;;;;;;;16.10;100.00;100738.66;5053150;28;20057;-68
2023/09/14 02:41:25;;;;;;;10.27;5.47;;;;;;;16.15;100.00;100746.94;5052503;28;20115;-66
2023/09/14 02:43:51;;;;;;;7.00;5.03;;;;;;;16.08;100.00;100732.66;5051803;28;20095;-67
2023/09/14 02:46:16;;;;;;;8.30;5.25;;;;;;;16.12;100.00;100736.59;5051770;28;20083;-69
2023/09/14 02:48:41;;;;;;;9.53;5.37;;;;;;;16.28;100.00;100754.25;5052048;28;20025;-70
2023/09/14 02:51:07;;;;;;;7.47;6.07;;;;;;;16.32;100.00;100799.34;5052161;28;20056;-71
2023/09/14 02:53:32;;;;;;;8.98;5.05;;;;;;;16.27;100.00;100783.00;5058730;28;20036;-67
2023/09/14 02:55:58;;;;;;;6.35;5.22;;;;;;;16.14;100.00;100760.56;5063749;28;20036;-67
2023/09/14 02:58:23;;;;;;;8.77;4.95;;;;;;;16.33;100.00;100787.56;5062741;28;20041;-67
2023/09/14 03:00:48;;;;;;;7.35;5.28;;;;;;;16.34;100.00;100773.09;5062033;28;20518;-66
2023/09/14 03:03:14;;;;;;;6.70;5.63;;;;;;;16.51;100.00;100800.47;5064035;28;20031;-66
2023/09/14 03:05:39;;;;;;;7.20;5.05;;;;;;;16.52;100.00;100796.75;5064061;28;20496;-67
2023/09/14 03:08:05;;;;;;;13.43;5.72;;;;;;;16.54;100.00;100792.00;5063746;28;20098;-66
2023/09/14 03:10:30;;;;;;;7.57;5.47;;;;;;;16.47;100.00;100776.84;5065933;28;20447;-67
2023/09/14 03:12:56;;;;;;;10.75;5.20;;;;;;;16.47;100.00;100785.75;5063853;28;20692;-66
2023/09/14 03:15:21;;;;;;;11.32;5.90;;;;;;;16.46;100.00;100783.25;5055745;28;20060;-70
2023/09/14 03:17:47;;;;;;;11.40;6.03;;;;;;;16.30;100.00;100749.50;5055933;28;20376;-67
2023/09/14 03:20:12;;;;;;;8.80;5.18;;;;;;;16.41;100.00;100773.94;5055750;28;20080;-68
2023/09/14 03:22:38;;;;;;;8.90;6.18;;;;;;;16.40;100.00;100766.91;5055511;28;20110;-67
2023/09/14 03:25:03;;;;;;;7.80;5.43;;;;;;;16.22;100.00;100729.03;5055314;28;20445;-67
2023/09/14 03:27:29;;;;;;;6.75;5.38;;;;;;;16.35;100.00;100761.31;5055095;28;20036;-68
2023/09/14 03:29:54;;;;;;;7.20;5.55;;;;;;;16.34;100.00;100740.84;5054802;28;20112;-70
2023/09/14 03:32:20;;;;;;;9.57;5.38;;;;;;;16.43;100.00;100755.75;5055235;28;20052;-70
2023/09/14 03:34:45;;;;;;;8.80;5.68;;;;;;;16.36;100.00;100738.78;5054064;28;20411;-67
2023/09/14 03:37:11;;;;;;;7.53;5.35;;;;;;;16.48;100.00;100741.72;5055182;28;20059;-69
2023/09/14 03:39:36;;;;;;;11.18;6.10;;;;;;;16.50;100.00;100746.91;5055208;28;20032;-66
2023/09/14 03:42:02;;;;;;;9.13;5.68;;;;;;;16.49;100.00;100739.88;5055122;28;20029;-68
2023/09/14 03:44:27;;;;;;;8.15;5.38;;;;;;;16.51;100.00;100756.63;5053639;28;20033;-67
2023/09/14 03:46:53;;;;;;;7.93;4.95;;;;;;;16.37;100.00;100732.38;5054899;28;20461;-69
2023/09/14 03:49:18;;;;;;;5.85;4.88;;;;;;;16.43;100.00;100750.38;5054718;28;20111;-70
2023/09/14 03:51:43;;;;;;;6.97;5.35;;;;;;;16.49;100.00;100747.94;5054033;28;20108;-68
2023/09/14 03:54:09;;;;;;;6.65;5.72;;;;;;;16.48;100.00;100754.31;5055261;28;20384;-69
2023/09/14 03:56:35;;;;;;;12.10;5.53;;;;;;;16.55;100.00;100755.19;5054869;28;20036;-68
2023/09/14 03:59:00;;;;;;;6.90;5.38;;;;;;;16.47;100.00;100755.34;5053330;28;20048;-68
2023/09/14 04:01:26;;;;;;;10.95;5.72;;;;;;;16.60;100.00;100793.06;5054564;28;20033;-69
2023/09/14 04:03:51;;;;;;;7.82;5.35;;;;;;;16.63;100.00;100787.28;5053881;28;20057;-69
2023/09/14 04:06:17;;;;;;;7.32;5.32;;;;;;;16.65;100.00;100795.97;5054567;28;20408;-68
2023/09/14 04:08:42;;;;;;;7.10;5.05;;;;;;;16.68;100.00;100792.91;5054548;28;20346;-69
2023/09/14 04:11:07;;;;;;;7.80;5.95;;;;;;;16.71;100.00;100789.81;5054410;28;20056;-69
2023/09/14 04:13:34;;;;;;;9.87;5.33;;;;;;;16.61;100.00;100776.72;5054171;28;20107;-68
2023/09/14 04:16:03;;;;;;;9.43;5.20;;;;;;;16.73;100.00;100779.66;5054504;28;20449;-68
2023/09/14 04:18:33;;;;;;;7.10;5.93;;;;;;;16.77;100.00;100770.19;5054350;28;20464;-70
2023/09/14 04:20:58;;;;;;;6.82;3.92;;;;;;;16.60;100.00;100748.16;5053945;28;20032;-66
2023/09/14 04:23:23;;;;;;;11.70;5.50;;;;;;;16.79;100.00;100778.06;5054550;28;20154;-77
2023/09/14 04:25:49;;;;;;;8.20;4.68;;;;;;;16.83;100.00;100777.44;5053941;28;20039;-67
2023/09/14 04:28:16;;;;;;;10.93;5.18;;;;;;;16.88;100.00;100787.59;5054039;28;20464;-68
2023/09/14 04:31:01;;;;;;;10.23;5.75;;;;;;;16.78;100.00;100768.34;5053897;28;20033;-71
2023/09/14 04:33:29;;;;;;;5.72;4.45;;;;;;;16.75;100.00;100764.16;5054217;28;20037;-69
2023/09/14 04:35:58;;;;;;;;;;;;;;;16.95;100.00;100797.31;5054382;28;20037;-69
2023/09/14 04:38:24;;;;;;;10.70;6.45;;;;;;;16.96;100.00;100798.97;5052641;28;19913;-70
2023/09/14 04:40:49;;;;;;;10.35;5.15;;;;;;;16.87;100.00;100788.63;5052227;28;20032;-72
2023/09/14 04:43:15;;;;;;;12.65;5.47;;;;;;;16.95;100.00;100805.41;5054022;28;20090;-69
2023/09/14 04:45:40;;;;;;;9.57;4.93;;;;;;;16.94;100.00;100795.66;5053484;28;20067;-66
2023/09/14 04:48:06;;;;;;;12.88;6.20;;;;;;;16.91;100.00;100785.31;5053606;28;20020;-68
2023/09/14 04:50:32;;;;;;;8.48;5.47;;;;;;;17.00;100.00;100802.91;5054102;28;20375;-70
2023/09/14 04:52:58;;;;;;;11.35;5.50;;;;;;;16.30;100.00;100683.16;5053172;28;20029;-67
2023/09/14 04:55:24;;;;;;;7.32;5.30;;;;;;;16.85;100.00;100775.38;5053593;28;20064;-66
2023/09/14 04:57:49;;;;;;;11.10;5.95;;;;;;;16.50;100.00;100728.09;5053240;28;20041;-69
2023/09/14 05:00:15;;;;;;;10.35;5.57;;;;;;;16.88;100.00;100791.09;5053580;28;20044;-69
2023/09/14 05:02:41;;;;;;;11.40;5.15;;;;;;;16.76;100.00;100787.34;5053808;28;20033;-70
2023/09/14 05:05:10;;;;;;;9.98;5.10;;;;;;;16.88;100.00;100801.88;5053371;28;20036;-69
2023/09/14 05:07:35;;;;;;;7.28;5.53;;;;;;;16.76;100.00;100770.38;5053007;28;20040;-69
2023/09/14 05:10:02;;;;;;;10.25;5.25;;;;;;;16.85;100.00;100775.38;5052539;28;20045;-70
2023/09/14 05:12:28;;;;;;;8.57;5.70;;;;;;;16.86;100.00;100763.59;5053372;28;20115;-67
2023/09/14 05:14:53;;;;;;;9.05;5.43;;;;;;;16.95;100.00;100754.28;5053962;28;20060;-70
2023/09/14 05:17:19;;;;;;;12.48;6.85;;;;;;;16.89;100.00;100722.00;5053201;28;20036;-71
2023/09/14 05:19:50;;;;;;;12.20;6.38;;;;;;;17.06;100.00;100750.19;5053261;28;20123;-75
2023/09/14 05:22:16;;;;;;;9.23;6.25;;;;;;;16.98;100.00;100726.97;5055524;28;20083;-71
2023/09/14 05:24:42;;;;;;;13.40;6.22;;;;;;;17.18;100.00;100753.06;5053205;28;20033;-70
2023/09/14 05:27:07;;;;;;;12.98;6.38;;;;;;;17.15;100.00;100734.66;5053473;28;20090;-74
2023/09/14 05:29:33;;;;;;;14.23;7.05;;;;;;;16.87;100.00;100692.63;5053080;28;20040;-69
2023/09/14 05:32:02;;;;;;;14.70;7.40;;;;;;;16.94;100.00;100720.34;5052505;28;20048;-67
2023/09/14 05:34:28;;;;;;;15.20;8.48;;;;;;;16.82;100.00;100716.63;5051478;28;20037;-70
2023/09/14 05:36:53;;;;;;;14.73;8.10;;;;;;;16.67;100.00;100699.81;5052754;28;20020;-71
2023/09/14 05:39:19;;;;;;;14.45;7.85;;;;;;;16.67;100.00;100705.19;5052841;28;20036;-69
2023/09/14 05:41:45;;;;;;;9.60;7.25;;;;;;;16.64;100.00;100708.25;5051841;28;20032;-69
2023/09/14 05:44:10;;;;;;;12.00;7.50;;;;;;;16.53;100.00;100679.28;5052650;28;20119;-65
2023/09/14 05:46:39;;;;;;;11.10;7.43;;;;;;;16.64;100.00;100692.13;5052927;28;20054;-65
2023/09/14 05:49:05;;;;;;;13.40;8.07;;;;;;;16.56;100.00;100673.50;5052696;28;20044;-67
2023/09/14 05:51:31;;;;;;;10.10;6.53;;;;;;;16.12;100.00;100607.63;5052484;28;20032;-67
2023/09/14 05:53:56;;;;;;;11.57;7.47;;;;;;;16.80;100.00;100713.31;5052415;28;20021;-66
2023/09/14 05:56:22;;;;;;;11.75;7.50;;;;;;;16.96;100.00;100729.03;5052444;28;20060;-68
2023/09/14 05:58:48;;;;;;;14.85;7.35;;;;;;;17.02;100.00;100722.00;5052508;28;20025;-67
2023/09/14 06:01:14;;;;;;;9.95;7.47;;;;;;;16.82;100.00;100695.09;5052580;28;20542;-66
2023/09/14 06:03:40;;;;;;;13.15;7.60;;;;;;;17.00;100.00;100724.06;5052396;28;20404;-67
2023/09/14 06:06:05;;;;;;;15.43;7.93;;;;;;;16.99;100.00;100734.00;5051952;28;20033;-66
2023/09/14 06:08:30;;;;;;;12.45;6.95;;;;;;;16.94;100.00;100725.72;5052504;28;20351;-67
2023/09/14 06:10:56;;;;;;;11.30;6.72;;;;;;;16.96;100.00;100733.59;5051938;28;20071;-66
2023/09/14 06:13:22;;;;;;;11.25;6.43;;;;;;;16.89;100.00;100722.81;5051906;28;20031;-68
2023/09/14 06:15:48;;;;;;;10.27;6.32;;;;;;;16.74;100.00;100703.34;5052171;28;20115;-67
2023/09/14 06:18:14;;;;;;;11.65;7.07;;;;;;;16.59;100.00;100683.84;5052044;28;20079;-67
2023/09/14 06:20:40;;;;;;;9.45;8.43;;;;;;;16.86;100.00;100754.69;5052029;28;20487;-64
2023/09/14 06:23:05;;;;;;;11.60;7.03;;;;;;;16.74;100.00;100754.44;5052304;28;20029;-68
2023/09/14 06:25:30;;;;;;;21.83;8.85;;;;;;;16.65;100.00;100718.81;5051957;28;20041;-68
2023/09/14 06:27:56;;;;;;;21.92;9.80;;;;;;;16.47;100.00;100731.16;5051786;28;20381;-68
2023/09/14 06:30:22;;;;;;;19.63;8.60;;;;;;;16.37;100.00;100723.47;5051652;28;20033;-69
2023/09/14 06:32:47;;;;;;;14.48;10.52;;;;;;;16.43;100.00;100750.38;5052220;28;20029;-65
2023/09/14 06:35:13;;;;;;;13.52;8.77;;;;;;;16.36;100.00;100736.09;5051732;28;20107;-66
2023/09/14 06:37:38;;;;;;;14.75;8.43;;;;;;;16.39;100.00;100761.72;5051960;28;20025;-67
2023/09/14 06:40:06;;;;;;;15.43;8.82;;;;;;;16.32;100.00;100764.41;5052125;28;20017;-66
2023/09/14 06:42:32;;;;;;;;;;;;;;;16.29;100.00;100764.81;5052624;28;20048;-67
2023/09/14 06:44:58;;;;;;;15.07;10.47;;;;;;;16.14;100.00;100755.19;5055468;28;19971;-70
2023/09/14 06:47:23;;;;;;;13.52;10.15;;;;;;;15.94;100.00;100739.00;5055859;28;20024;-70
2023/09/14 06:49:48;;;;;;;15.03;11.20;;;;;;;15.98;100.00;100751.84;5055680;28;20024;-67
2023/09/14 06:52:14;;;;;;;17.83;11.20;;;;;;;16.14;100.00;100777.53;5055527;28;20149;-67
2023/09/14 06:54:39;;;;;;;22.27;12.23;;;;;;;16.06;100.00;100742.78;5056229;28;20029;-65
2023/09/14 06:57:05;;;;;;;12.10;9.63;;;;;;;16.19;100.00;100768.88;5055813;28;20052;-70
2023/09/14 06:59:30;;;;;;;13.07;10.00;;;;;;;16.11;100.00;100761.81;5055717;28;20040;-68
2023/09/14 07:01:55;;;;;;;14.03;10.60;;;;;;;15.95;100.00;100756.78;5055550;28;20484;-66
2023/09/14 07:04:21;;;;;;;21.17;10.63;;;;;;;15.94;100.00;100760.50;5055371;28;20108;-66
2023/09/14 07:06:46;;;;;;;15.63;11.03;;;;;;;15.84;100.00;100742.03;5055584;28;20116;-66
2023/09/14 07:09:12;;;;;;;13.80;10.10;;;;;;;15.90;100.00;100751.13;5054411;28;20038;-67
2023/09/14 07:11:37;;;;;;;17.10;9.23;;;;;;;16.01;100.00;100766.72;5055765;28;20067;-69
2023/09/14 07:14:03;;;;;;;11.17;10.00;;;;;;;16.02;100.00;100752.25;5055205;28;20067;-66
2023/09/14 07:16:28;;;;;;;16.77;11.47;;;;;;;16.06;100.00;100761.56;5055202;28;20082;-67
2023/09/14 07:18:54;;;;;;;17.87;11.30;;;;;;;16.08;100.00;100779.16;5054651;28;20024;-68
2023/09/14 07:21:19;;;;;;;23.73;10.00;;;;;;;16.07;100.00;100755.19;5054632;28;20380;-68
2023/09/14 07:23:46;;;;;;;16.63;11.30;;;;;;;16.11;100.00;100761.81;5054295;28;20154;-71
2023/09/14 07:26:12;;;;;;;12.83;10.00;;;;;;;16.06;100.00;100758.91;5054330;28;20124;-68
2023/09/14 07:28:38;;;;;;;14.77;10.23;;;;;;;15.97;100.00;100746.66;5055017;28;20362;-68
2023/09/14 07:31:05;;;;;;;16.20;10.73;;;;;;;16.02;100.00;100779.13;5054936;28;20056;-66
2023/09/14 07:33:31;;;;;;;16.45;12.02;;;;;;;15.99;100.00;100768.78;5054750;28;20040;-68
2023/09/14 07:35:57;;;;;;;15.07;11.00;;;;;;;15.94;100.00;100755.13;5053969;28;20029;-66
2023/09/14 07:38:22;;;;;;;15.00;11.60;;;;;;;15.98;100.00;100746.47;5055184;28;20040;-69
2023/09/14 07:40:48;;;;;;;14.70;10.90;;;;;;;16.03;100.00;100749.38;5055230;28;20480;-66
2023/09/14 07:43:14;;;;;;;20.33;11.57;;;;;;;16.13;100.00;100754.38;5055068;28;20031;-72
2023/09/14 07:45:40;;;;;;;15.83;11.23;;;;;;;16.17;100.00;100742.19;5057170;28;20067;-68
2023/09/14 07:48:07;;;;;;;17.17;12.53;;;;;;;16.17;100.00;100739.50;5058107;28;20029;-72
2023/09/14 07:50:39;;;;;;;15.37;11.57;;;;;;;16.21;100.00;100762.28;5056118;28;20025;-69
2023/09/14 07:53:08;;;;;;;14.45;11.50;;;;;;;16.13;100.00;100764.28;5055444;28;20116;-68
2023/09/14 07:55:33;;;;;;;14.03;11.13;;;;;;;16.16;100.00;100775.47;5054143;28;20124;-68
2023/09/14 07:57:59;;;;;;;16.10;11.90;;;;;;;16.09;100.00;100770.06;5054901;28;20123;-71
2023/09/14 08:00:25;;;;;;;16.60;11.50;;;;;;;15.74;100.00;100720.91;5054693;28;20048;-70
2023/09/14 08:02:51;;;;;;;14.97;11.63;;;;;;;15.95;100.00;100746.84;5054676;28;20044;-72
2023/09/14 08:05:16;;;;;;;17.37;11.30;;;;;;;16.07;100.00;100755.19;5055054;28;20029;-70
2023/09/14 08:07:42;;;;;;;16.03;10.57;;;;;;;16.18;100.00;100776.09;5057459;28;20027;-71
2023/09/14 08:10:08;;;;;;;20.17;11.30;;;;;;;16.03;100.00;100752.06;5055938;28;20473;-70
2023/09/14 08:12:36;;;;;;;14.23;11.47;;;;;;;16.14;100.00;100774.84;5054717;28;20021;-72
2023/09/14 08:15:05;;;;;;;18.30;13.33;;;;;;;16.06;100.00;100764.25;5054186;28;20032;-71
2023/09/14 08:17:30;;;;;;;13.93;12.17;;;;;;;16.11;100.00;100772.56;5054323;28;20033;-74
2023/09/14 08:19:56;;;;;;;14.80;11.57;;;;;;;16.07;100.00;100765.91;5054102;28;20035;-72
2023/09/14 08:22:23;;;;;;;16.50;12.00;;;;;;;15.99;100.00;100774.16;5054183;28;20057;-73
2023/09/14 08:24:52;;;;;;;18.57;13.57;;;;;;;15.97;100.00;100782.41;5054636;28;20033;-75
2023/09/14 08:27:18;;;;;;;18.03;12.90;;;;;;;15.93;100.00;100783.00;5054256;28;20060;-66
2023/09/14 08:29:44;;;;;;;19.90;13.67;;;;;;;16.00;100.00;100791.94;5054045;28;20105;-67
2023/09/14 08:32:13;;;;;;;21.57;13.43;;;;;;;15.97;100.00;100786.94;5052408;28;20041;-70
2023/09/14 08:34:39;;;;;;;18.27;12.70;;;;;;;15.96;100.00;100785.28;5036098;28;20086;-70
2023/09/14 08:37:09;;;;;;;18.90;12.67;;;;;;;15.96;100.00;100766.50;5053992;28;20025;-67
2023/09/14 08:39:36;;;;;;;16.77;12.63;;;;;;;15.92;100.00;100773.28;5055327;28;20021;-70
2023/09/14 08:42:01;;;;;;;15.97;12.20;;;;;;;15.77;100.00;100766.16;5053796;28;20468;-70
2023/09/14 08:44:33;;;;;;;20.07;13.03;;;;;;;15.91;100.00;100783.19;5054155;28;20035;-72
2023/09/14 08:47:01;;;;;;;14.50;13.00;;;;;;;15.86;100.00;100772.19;5055549;28;20112;-71
2023/09/14 08:49:28;;;;;;;15.30;13.20;;;;;;;15.97;100.00;100786.94;5059865;28;20032;-71
2023/09/14 08:51:57;;;;;;;20.23;11.95;;;;;;;16.01;100.00;100785.53;5057235;28;20024;-71
2023/09/14 08:54:23;;;;;;;15.60;11.57;;;;;;;15.94;100.00;100782.81;5058398;28;20079;-70
2023/09/14 08:56:49;;;;;;;15.47;12.13;;;;;;;15.92;100.00;100792.09;5061600;28;20029;-70
2023/09/14 08:59:20;;;;;;;17.57;12.47;;;;;;;15.82;100.00;100792.41;5059281;28;20081;-69
2023/09/14 09:01:48;;;;;;;15.00;11.93;;;;;;;15.62;100.00;100760.06;5060450;28;20070;-69
2023/09/14 09:04:14;;;;;;;15.97;13.47;;;;;;;15.79;100.00;100796.31;5061248;28;20041;-73
2023/09/14 09:06:41;;;;;;;18.03;12.67;;;;;;;15.90;100.00;100812.91;5061147;28;20041;-72
2023/09/14 09:09:07;;;;;;;16.07;12.13;;;;;;;15.63;100.00;100779.69;5058841;28;20032;-70
2023/09/14 09:11:33;;;;;;;15.30;13.03;;;;;;;15.68;100.00;100799.56;5062469;28;20124;-68
2023/09/14 09:13:59;;;;;;;16.63;13.07;;;;;;;15.47;100.00;100764.66;5060150;28;20484;-72
2023/09/14 09:16:26;;;;;;;16.40;13.03;;;;;;;15.68;100.00;100804.94;5056105;28;20021;-71
2023/09/14 09:19:05;;;;;;;14.30;11.70;;;;;;;15.74;100.00;100804.13;5059533;28;20028;-68
2023/09/14 09:21:33;;;;;;;14.97;13.27;;;;;;;15.52;100.00;100783.69;5063797;28;20037;-69
2023/09/14 09:24:01;;;;;;;19.70;12.75;;;;;;;15.59;100.00;100798.03;5063703;28;20017;-69
2023/09/14 09:26:38;;;;;;;17.88;12.05;;;;;;;15.70;100.00;100816.31;5064326;28;20032;-69
2023/09/14 09:29:14;;;;;;;17.30;13.00;;;;;;;15.67;100.00;100805.94;5061409;28;20025;-70
2023/09/14 09:31:44;;;;;;;16.47;13.67;;;;;;;15.77;100.00;100835.97;5063027;28;20048;-69
2023/09/14 09:34:11;;;;;;;18.93;14.00;;;;;;;15.75;100.00;100829.97;5064034;28;20090;-70
2023/09/14 09:36:38;;;;;;;19.10;13.87;;;;;;;15.69;100.00;100819.19;5063797;28;20021;-68
2023/09/14 09:39:07;;;;;;;20.37;13.63;;;;;;;15.79;100.00;100830.41;5058867;28;20036;-69
2023/09/14 09:41:35;;;;;;;19.53;13.20;;;;;;;15.80;100.00;100838.25;5053555;28;20052;-73
2023/09/14 09:44:13;;;;;;;22.08;14.85;;;;;;;15.76;100.00;100834.31;5053752;28;20063;-72
2023/09/14 09:46:39;;;;;;;17.08;13.65;;;;;;;15.61;100.00;100798.69;5053641;28;20124;-72
2023/09/14 09:49:19;;;;;;;17.83;13.63;;;;;;;15.70;100.00;100786.75;5053631;28;20066;-72
2023/09/14 09:51:46;;;;;;;18.67;13.07;;;;;;;15.88;100.00;100812.28;5052912;28;20048;-71
2023/09/14 09:54:11;;;;;;;18.80;13.97;;;;;;;15.90;100.00;100829.03;5052900;28;20112;-72
2023/09/14 09:56:38;;;;;;;14.70;11.73;;;;;;;15.95;100.00;100837.34;5053326;28;20120;-72
2023/09/14 09:59:09;;;;;;;13.53;11.93;;;;;;;15.80;100.00;100824.84;5051916;28;20357;-70
2023/09/14 10:01:44;;;;;;;21.53;13.53;;;;;;;15.79;100.00;100831.22;5051640;28;20025;-71
2023/09/14 10:04:14;;;;;;;15.87;14.00;;;;;;;15.80;100.00;100827.53;5052841;28;20108;-70
2023/09/14 10:06:43;;;;;;;15.90;12.70;;;;;;;15.86;100.00;100836.66;5052624;28;20398;-70
2023/09/14 10:09:11;;;;;;;13.53;11.80;;;;;;;15.45;100.00;100769.41;5052419;28;20025;-70
2023/09/14 10:11:38;;;;;;;17.73;13.63;;;;;;;15.84;100.00;100811.00;5052367;28;20028;-70
2023/09/14 10:14:04;;;;;;;13.30;11.90;;;;;;;15.97;100.00;100837.97;5052326;28;20259;-71
2023/09/14 10:16:35;;;;;;;14.93;12.18;;;;;;;15.95;100.00;100831.97;5051301;28;20056;-70
2023/09/14 10:19:02;;;;;;;18.63;13.07;;;;;;;15.92;100.00;100821.63;5052238;28;20032;-72
2023/09/14 10:21:29;;;;;;;16.67;12.23;;;;;;;16.14;100.00;100846.56;5052207;28;20098;-71
2023/09/14 10:23:55;;;;;;;16.97;12.37;;;;;;;16.24;100.00;100847.88;5051983;28;20032;-72
2023/09/14 10:26:20;;;;;;;15.80;11.40;;;;;;;16.23;100.00;100830.09;5052066;28;20033;-73
2023/09/14 10:28:46;;;;;;;14.65;11.90;;;;;;;16.36;100.00;100843.59;5051971;28;20048;-69
2023/09/14 10:31:13;;;;;;;15.38;11.93;;;;;;;16.06;100.00;100801.88;5034178;28;20048;-72
2023/09/14 10:33:44;;;;;;;13.87;11.50;;;;;;;16.36;100.00;100845.47;5052503;28;20093;-72
2023/09/14 10:36:11;;;;;;;15.60;11.80;;;;;;;16.39;100.00;100853.94;5052112;28;20052;-73
2023/09/14 10:38:42;;;;;;;14.70;12.27;;;;;;;16.37;100.00;100850.63;5051801;28;20025;-73
2023/09/14 10:41:07;;;;;;;13.77;12.03;;;;;;;16.35;100.00;100844.63;5052043;28;20025;-70
2023/09/14 10:43:33;;;;;;;12.73;9.57;;;;;;;16.34;100.00;100839.44;5052755;28;20078;-70
2023/09/14 10:46:01;;;;;;;11.75;9.88;;;;;;;16.37;100.00;100847.94;5052271;28;20380;-70
2023/09/14 10:48:29;;;;;;;14.23;12.45;;;;;;;16.30;100.00;100840.88;5052070;28;20028;-69
2023/09/14 10:50:54;;;;;;;15.95;11.38;;;;;;;16.38;100.00;100871.09;5052299;28;20040;-69
2023/09/14 10:53:22;;;;;;;14.45;11.48;;;;;;;16.22;100.00;100844.56;5053628;28;20029;-71
2023/09/14 10:55:48;;;;;;;14.32;10.57;;;;;;;16.31;100.00;100864.88;5052607;28;20116;-70
2023/09/14 10:58:16;;;;;;;11.68;9.20;;;;;;;16.18;100.00;100851.34;5053761;28;20179;-72
2023/09/14 11:00:46;;;;;;;9.55;7.90;;;;;;;16.19;100.00;100858.41;5053512;28;20025;-73
2023/09/14 11:03:13;;;;;;;13.98;9.15;;;;;;;16.29;100.00;100877.69;5052097;28;20040;-70
2023/09/14 11:05:44;;;;;;;10.60;9.07;;;;;;;16.23;100.00;100869.56;5051889;28;20147;-70
2023/09/14 11:08:10;;;;;;;7.97;7.17;;;;;;;16.24;100.00;100890.88;5051588;28;20033;-70